Time;durP1;ratioP1;P1;durP2;ratioP2;P2;SDS_P1;SDS_P2;PMS_P1;PMS_P2;Temp;Humidity;BMP_temperature;BMP_pressure;BME280_temperature;BME280_humidity;BME280_pressure;Samples;Min_cycle;Max_cycle;Signal;HPM_P1;HPM_P2
2023/05/20 00:01:30;;;;;;;;;;;16.20;77.90;;;16.53;49.26;98791.81;5082078;27;113919;-93
2023/05/20 00:03:56;;;;;;;;;;;16.20;78.10;;;16.51;49.24;98794.16;5080078;27;124282;-91
2023/05/20 00:06:22;;;;;;;;;;;16.20;78.10;;;16.49;49.31;98800.06;5067725;27;123536;-92
2023/05/20 00:08:51;;;;;;;;;;;16.20;78.20;;;16.49;48.96;98790.91;5089596;27;115690;-92
2023/05/20 00:11:17;;;;;;;;;;;16.20;78.30;;;16.49;49.34;98796.47;5071078;27;114723;-92
2023/05/20 00:13:46;;;;;;;;;;;16.20;78.40;;;16.49;49.09;98796.47;5089824;27;124833;-92
2023/05/20 00:16:12;;;;;;;;;;;16.20;78.50;;;16.49;49.20;98793.69;5070700;27;123914;-92
2023/05/20 00:18:39;;;;;;;;;;;16.20;78.70;;;16.48;49.76;98789.28;5062599;27;113860;-92
2023/05/20 00:21:05;;;;;;;;;;;16.20;78.70;;;16.46;49.67;98792.41;5088858;27;112992;-94
2023/05/20 00:23:31;;;;;;;;;;;16.20;78.90;;;16.45;49.79;98790.78;5089850;27;123310;-92
2023/05/20 00:25:58;;;;;;;;;;;16.10;79.00;;;16.45;49.71;98790.00;5089887;27;123963;-92
2023/05/20 00:28:24;;;;;;;;;;;16.10;79.10;;;16.44;49.77;98782.75;5084789;27;115112;-92
2023/05/20 00:30:50;;;;;;;;;;;16.10;79.20;;;16.42;49.85;98785.94;5071709;27;113303;-93
2023/05/20 00:33:16;;;;;;;;;;;16.10;79.30;;;16.41;49.93;98781.50;5072763;27;124088;-92
2023/05/20 00:35:42;;;;;;;;;;;16.10;79.40;;;16.40;50.35;98782.66;5081875;27;123092;-92
2023/05/20 00:38:11;;;;;;;;;;;16.10;79.60;;;16.40;50.29;98782.66;5089119;27;114537;-92
2023/05/20 00:40:37;;;;;;;;;;;16.10;79.80;;;16.40;50.42;98781.88;5092371;27;113936;-93
2023/05/20 00:43:04;;;;;;;;;;;16.10;79.90;;;16.38;50.39;98782.19;5087006;27;124283;-93
2023/05/20 00:45:30;;;;;;;;;;;16.10;80.00;;;16.38;50.46;98784.19;5054556;27;122992;-93
2023/05/20 00:48:01;;;;;;;;;;;16.10;80.20;;;16.37;50.22;98786.16;5070714;27;115091;-92
2023/05/20 00:50:27;;;;;;;;;;;16.10;80.30;;;16.37;50.38;98782.56;5084976;27;113044;-93
2023/05/20 00:52:54;;;;;;;;;;;16.10;80.40;;;16.36;50.53;98787.31;5056904;27;123100;-92
2023/05/20 00:55:21;;;;;;;;;;;16.00;80.40;;;16.35;50.38;98789.28;5076452;27;123120;-92
2023/05/20 00:57:48;;;;;;;;;;;16.00;80.50;;;16.32;50.72;98778.84;5045123;27;113781;-91
2023/05/20 01:00:15;;;;;;;;;;;16.00;80.60;;;16.30;51.10;98778.38;5085071;27;115095;-93
2023/05/20 01:02:41;;;;;;;;;;;16.00;80.60;;;16.28;50.70;98774.31;5083693;27;125500;-92
2023/05/20 01:05:10;;;;;;;;;;;16.00;80.60;;;16.23;50.87;98778.19;5088261;27;123733;-93
2023/05/20 01:07:37;;;;;;;;;;;16.00;80.70;;;16.19;51.04;98774.44;5056273;27;113418;-92
2023/05/20 01:10:03;;;;;;;;;;;15.90;80.70;;;16.17;51.03;98771.19;5066817;27;113641;-92
2023/05/20 01:12:53;;;;;;;;;;;15.90;80.90;;;16.13;51.20;98775.84;5083379;27;124495;-92
2023/05/20 01:15:21;;;;;;;;;;;15.90;81.00;;;16.12;51.13;98772.25;5043829;27;124308;-94
2023/05/20 01:17:51;;;;;;;;;;;15.90;81.20;;;16.11;51.50;98776.19;5057043;27;114565;-92
2023/05/20 01:20:19;;;;;;;;;;;15.90;81.40;;;16.12;51.43;98777.03;5078863;27;113672;-92
2023/05/20 01:23:03;;;;;;;;;;;15.90;81.50;;;16.10;51.50;98773.78;5079559;27;124087;-92
2023/05/20 01:25:44;;;;;;;;;;;15.80;81.60;;;16.10;51.41;98762.63;5069340;27;124684;-93
2023/05/20 01:28:16;;;;;;;;;;;15.80;81.80;;;16.09;51.59;98760.97;5091318;27;113986;-93
2023/05/20 01:31:09;;;;;;;;;;;15.80;81.90;;;16.09;51.80;98755.41;5055963;27;112950;-92
2023/05/20 01:37:30;;;;;;;;;;;15.80;82.20;;;16.07;51.76;98754.97;5080517;27;124494;-91
2023/05/20 01:43:54;;;;;;;;;;;15.70;82.40;;;16.05;51.93;98749.72;4952404;28;114189;-93
2023/05/20 01:49:21;;;;;;;;;;;15.70;82.60;;;16.03;52.02;98745.66;4917789;28;125195;-92
2023/05/20 01:51:54;;;;;;;;;;;15.70;82.70;;;16.05;52.41;98746.13;4934140;28;115202;-93
2023/05/20 01:54:20;;;;;;;;;;;15.70;82.90;;;16.03;52.07;98749.25;4949437;28;113725;-92
2023/05/20 01:57:28;;;;;;;;;;;15.70;83.00;;;16.03;52.05;98752.06;4923083;28;123807;-93
2023/05/20 02:00:13;;;;;;;;;;;15.70;83.10;;;16.02;52.09;98761.59;4914323;28;123908;-93
2023/05/20 02:02:46;;;;;;;;;;;15.70;83.30;;;16.03;52.46;98752.06;4934786;28;114651;-94
2023/05/20 02:05:12;;;;;;;;;;;15.70;83.40;;;16.02;52.33;98750.44;4951926;28;114191;-94
2023/05/20 02:07:42;;;;;;;;;;;15.70;83.40;;;16.04;52.52;98744.50;4946833;28;124742;-93
2023/05/20 02:10:36;;;;;;;;;;;15.70;83.60;;;16.01;52.34;98748.00;4953332;28;124104;-92
2023/05/20 02:13:22;;;;;;;;;;;15.70;83.60;;;15.96;52.51;98740.69;5017223;28;115008;-93
2023/05/20 02:15:54;;;;;;;;;;;15.70;83.70;;;15.94;52.70;98747.78;4995483;28;113293;-93
2023/05/20 02:19:11;;;;;;;;;;;15.70;83.80;;;15.89;52.75;98741.28;5028376;27;124728;-94
2023/05/20 02:22:16;;;;;;;;;;;15.70;83.90;;;15.83;52.79;98739.88;4963402;28;123168;-93
2023/05/20 02:25:09;;;;;;;;;;;15.60;84.00;;;15.78;53.19;98745.69;4947131;28;113863;-94
2023/05/20 02:27:35;;;;;;;;;;;15.50;84.10;;;15.75;53.34;98740.81;4942946;28;113734;-94
2023/05/20 02:30:22;;;;;;;;;;;15.50;84.20;;;15.73;53.20;98743.13;4945494;28;124284;-94
2023/05/20 02:32:51;;;;;;;;;;;15.50;84.40;;;15.72;53.58;98743.50;4942941;28;125579;-92
2023/05/20 02:35:17;;;;;;;;;;;15.50;84.60;;;15.69;53.50;98753.38;4945401;28;114830;-92
2023/05/20 02:37:49;;;;;;;;;;;15.50;84.70;;;15.67;53.44;98745.31;4946193;28;113988;-95
2023/05/20 02:40:51;;;;;;;;;;;15.50;84.80;;;15.62;53.79;98755.88;4946889;28;124280;-93
2023/05/20 02:43:17;;;;;;;;;;;15.40;85.00;;;15.56;53.69;98752.50;4934652;28;125518;-92
2023/05/20 02:46:06;;;;;;;;;;;15.30;85.10;;;15.51;54.05;98751.91;4936711;28;115216;-92
2023/05/20 02:49:11;;;;;;;;;;;15.30;85.30;;;15.46;54.17;98750.97;4988045;28;115107;-93
2023/05/20 02:51:49;;;;;;;;;;;15.30;85.50;;;15.41;54.27;98753.97;4988742;28;124142;-92
2023/05/20 02:54:18;;;;;;;;;;;15.20;85.60;;;15.41;54.40;98748.41;4987036;28;123896;-92
2023/05/20 03:00:15;;;;;;;;;;;15.20;85.90;;;15.34;54.28;98748.19;4980459;28;113566;-93
2023/05/20 03:03:09;;;;;;;;;;;15.10;86.20;;;15.30;54.64;98754.78;4978550;28;124016;-93
2023/05/20 03:05:44;;;;;;;;;;;15.10;86.20;;;15.27;54.84;98747.94;5069923;27;124106;-93
2023/05/20 03:08:21;;;;;;;;;;;15.10;86.40;;;15.25;54.65;98756.63;5092776;27;113478;-94
2023/05/20 03:10:48;;;;;;;;;;;15.10;86.60;;;15.24;54.81;98749.44;5079169;27;113985;-92
2023/05/20 03:13:30;;;;;;;;;;;15.00;86.70;;;15.23;55.10;98745.03;5089707;27;124345;-92
2023/05/20 03:16:02;;;;;;;;;;;15.00;86.80;;;15.23;55.04;98749.75;5090487;27;123217;-94
2023/05/20 03:22:19;;;;;;;;;;;15.00;87.10;;;15.16;55.22;98752.31;5091752;27;114556;-95
2023/05/20 03:25:04;;;;;;;;;;;14.90;87.20;;;15.15;55.28;98751.50;5074094;27;123338;-94
2023/05/20 03:27:37;;;;;;;;;;;14.90;87.50;;;15.17;55.68;98748.38;5070653;27;124187;-93
2023/05/20 03:30:10;;;;;;;;;;;14.90;87.70;;;15.16;55.52;98752.31;5074366;27;114641;-95
2023/05/20 03:32:39;;;;;;;;;;;14.90;87.80;;;15.15;55.54;98745.13;5084106;27;113707;-94
2023/05/20 03:35:07;;;;;;;;;;;14.90;88.10;;;15.14;55.40;98744.31;5074077;27;123599;-92
2023/05/20 03:37:40;;;;;;;;;;;14.90;88.20;;;15.15;55.54;98743.16;5070773;27;124044;-93
2023/05/20 03:40:24;;;;;;;;;;;14.00;87.50;;;15.16;55.56;98741.19;5071200;27;114805;-94
2023/05/20 03:43:05;;;;;;;;;;;14.90;88.60;;;15.17;55.65;98742.81;5086029;27;114682;-94
2023/05/20 03:45:37;;;;;;;;;;;14.90;88.70;;;15.18;55.68;98750.81;5089188;27;124431;-96
2023/05/20 03:48:04;;;;;;;;;;;14.90;88.80;;;15.18;55.86;98755.59;5066777;27;123731;-94
2023/05/20 03:50:42;;;;;;;;;;;14.90;88.90;;;15.19;55.65;98759.97;5079975;27;114462;-95
2023/05/20 03:53:22;;;;;;;;;;;14.90;89.10;;;15.20;55.93;98753.25;5071074;27;113763;-94
2023/05/20 03:56:18;;;;;;;;;;;14.90;89.20;;;15.20;55.86;98758.81;5072901;27;124453;-91
2023/05/20 03:58:44;;;;;;;;;;;14.90;89.30;;;15.17;55.79;98751.97;5037273;27;124299;-95
2023/05/20 04:01:25;;;;;;;;;;;14.90;89.40;;;15.17;56.08;98754.75;5032353;27;113499;-94
2023/05/20 04:03:52;;;;;;;;;;;14.90;89.60;;;15.19;56.08;98751.63;5001959;28;114039;-95
2023/05/20 04:06:26;;;;;;;;;;;14.90;89.70;;;15.20;56.30;98758.81;5004279;27;123672;-96
2023/05/20 04:09:14;;;;;;;;;;;14.90;89.90;;;15.19;56.22;98752.44;5034869;27;123800;-93
2023/05/20 04:12:19;;;;;;;;;;;14.90;90.00;;;15.18;56.32;98755.59;5026297;27;114733;-93
2023/05/20 04:14:54;;;;;;;;;;;14.90;90.00;;;15.20;56.21;98753.25;4972726;28;113804;-93
2023/05/20 04:18:09;;;;;;;;;;;14.80;90.00;;;15.19;56.35;98755.22;4953171;28;121825;-92
2023/05/20 04:20:41;;;;;;;;;;;14.90;90.10;;;15.21;56.54;98755.69;4902609;28;124555;-96
2023/05/20 04:23:07;;;;;;;;;;;14.90;90.20;;;15.22;56.56;98746.19;4894599;28;114154;-93
2023/05/20 04:26:29;;;;;;;;;;;14.90;90.40;;;15.25;56.38;98750.25;4911703;28;113916;-96
2023/05/20 04:28:57;;;;;;;;;;;14.90;90.30;;;15.27;56.21;98745.16;4908762;28;123994;-94
2023/05/20 04:31:39;;;;;;;;;;;14.90;90.30;;;15.30;56.35;98747.25;4935975;28;123407;-95
2023/05/20 04:35:00;;;;;;;;;;;14.90;90.40;;;15.32;56.46;98744.13;4960348;28;114905;-95
2023/05/20 04:37:55;;;;;;;;;;;15.00;90.50;;;15.32;56.28;98733.78;5033433;27;113728;-94
2023/05/20 04:40:27;;;;;;;;;;;15.00;90.50;;;15.35;56.49;98735.88;5000185;28;123532;-95
2023/05/20 04:42:54;;;;;;;;;;;15.00;90.50;;;15.38;56.59;98729.63;5008609;28;124643;-94
2023/05/20 04:45:23;;;;;;;;;;;15.00;90.60;;;15.41;56.51;98731.72;5041180;27;114580;-92
2023/05/20 04:47:55;;;;;;;;;;;15.00;90.60;;;15.43;56.47;98734.16;5084468;27;113784;-93
2023/05/20 04:50:38;;;;;;;;;;;15.00;90.70;;;15.42;56.42;98732.50;5055518;27;123911;-94
2023/05/20 04:53:32;;;;;;;;;;;15.10;90.70;;;15.44;56.37;98735.78;5070830;27;123487;-93
2023/05/20 04:56:36;;;;;;;;;;;15.10;90.80;;;15.44;56.56;98733.78;5056829;27;114101;-94
2023/05/20 04:59:09;;;;;;;;;;;15.10;90.80;;;15.45;56.64;98738.22;5082312;27;113800;-93
2023/05/20 05:01:44;;;;;;;;;;;15.10;90.80;;;15.48;56.50;98735.91;5066217;27;123865;-93
2023/05/20 05:04:29;;;;;;;;;;;15.10;90.90;;;15.50;56.60;98733.56;5063549;27;123876;-95
2023/05/20 05:07:14;;;;;;;;;;;15.10;90.90;;;15.51;56.55;98735.22;5090837;27;113892;-93
2023/05/20 05:09:40;;;;;;;;;;;15.10;91.10;;;15.48;57.00;98742.28;5074094;27;114421;-94
2023/05/20 05:12:21;;;;;;;;;;;15.10;91.20;;;15.42;56.98;98738.09;5079721;27;124112;-93
2023/05/20 05:15:28;;;;;;;;;;;15.00;91.20;;;15.35;57.21;98738.66;5091883;27;124197;-93
2023/05/20 05:18:24;;;;;;;;;;;15.00;91.40;;;15.38;56.99;98726.03;5008691;28;114558;-93
2023/05/20 05:21:12;;;;;;;;;;;15.10;91.30;;;15.43;57.18;98729.41;4986913;28;113708;-93
2023/05/20 05:24:05;;;;;;;;;;;15.10;91.40;;;15.48;57.21;98719.19;4971464;28;124033;-93
2023/05/20 05:26:37;;;;;;;;;;;15.10;91.30;;;15.52;57.01;98726.50;5010425;28;123461;-94
2023/05/20 05:29:03;;;;;;;;;;;15.20;91.30;;;15.57;57.07;98722.69;4973810;28;114219;-94
2023/05/20 05:31:31;;;;;;;;;;;15.20;91.30;;;15.63;56.94;98712.91;5002070;28;114695;-91
2023/05/20 05:33:57;;;;;;;;;;;15.30;91.40;;;15.68;56.73;98712.69;5010062;28;125289;-93
2023/05/20 05:36:26;;;;;;;;;;;15.30;91.40;;;15.73;56.80;98709.72;5008610;28;124035;-92
2023/05/20 05:42:21;;;;;;;;;;;15.30;91.40;;;15.78;56.77;98712.25;4999624;28;114818;-91
2023/05/20 05:44:56;;;;;;;;;;;15.40;91.50;;;15.84;56.79;98705.28;5011285;28;122502;-93
2023/05/20 05:47:31;;;;;;;;;;;15.40;91.60;;;15.89;56.93;98696.69;5022159;28;123694;-92
2023/05/20 05:50:13;;;;;;;;;;;15.40;91.70;;;15.92;57.09;98697.16;5011066;28;114627;-92
2023/05/20 05:52:40;;;;;;;;;;;15.40;91.80;;;15.95;57.04;98704.81;4991256;28;113300;-91
2023/05/20 05:55:07;;;;;;;;;;;15.50;91.90;;;15.98;57.43;98701.31;5017142;27;124337;-92
2023/05/20 05:57:44;;;;;;;;;;;15.50;91.90;;;15.98;57.16;98710.47;5032236;27;123523;-91
2023/05/20 06:00:17;;;;;;;;;;;15.50;92.00;;;15.98;57.13;98701.31;5076625;27;114651;-90
2023/05/20 06:02:54;;;;;;;;;;;15.50;92.00;;;15.99;57.35;98700.97;5072629;27;113907;-90
2023/05/20 06:05:39;;;;;;;;;;;15.60;92.10;;;16.05;57.26;98695.97;5090431;27;124109;-90
2023/05/20 06:08:17;;;;;;;;;;;15.60;92.20;;;16.10;57.27;98702.13;5089901;27;124246;-90
2023/05/20 06:11:20;;;;;;;;;;;15.60;92.20;;;16.11;57.06;98700.13;5091100;27;114711;-90
2023/05/20 06:13:49;;;;;;;;;;;15.70;92.20;;;16.15;57.01;98700.22;4989520;27;113213;-90
2023/05/20 06:16:16;;;;;;;;;;;15.70;92.20;;;16.21;57.23;98696.88;5061615;27;124967;-93
2023/05/20 06:18:42;;;;;;;;;;;15.70;92.20;;;16.27;57.26;98694.63;5069028;27;123851;-88
2023/05/20 06:21:28;;;;;;;;;;;15.70;92.30;;;16.32;57.00;98692.41;5082898;27;115312;-89
2023/05/20 06:23:54;;;;;;;;;;;15.80;92.30;;;16.40;56.72;98687.84;5073140;27;114833;-88
2023/05/20 06:26:27;;;;;;;;;;;15.90;92.40;;;16.50;56.83;98697.72;5065784;27;123529;-90
2023/05/20 06:29:11;;;;;;;;;;;15.90;92.30;;;16.56;56.74;98683.16;5066876;27;123831;-89
2023/05/20 06:31:41;;;;;;;;;;;16.00;92.30;;;16.56;56.59;98690.72;5057613;27;114749;-89
2023/05/20 06:34:39;;;;;;;;;;;16.00;92.30;;;16.54;56.68;98687.44;5057431;27;113276;-90
2023/05/20 06:37:11;;;;;;;;;;;16.00;92.20;;;16.62;56.65;98678.13;5078866;27;123275;-92
2023/05/20 06:39:58;;;;;;;;;;;16.10;92.30;;;16.67;56.61;98686.22;5042050;27;123672;-91
2023/05/20 06:42:27;;;;;;;;;;;16.20;92.30;;;16.75;56.61;98676.91;5074519;27;114655;-89
2023/05/20 06:44:59;;;;;;;;;;;16.30;92.20;;;16.87;56.34;98678.03;5080667;27;116587;-87
2023/05/20 06:50:48;;;;;;;;;;;16.40;92.20;;;17.11;56.13;98665.91;5081490;27;124455;-83
2023/05/20 06:53:15;;;;;;;;;;;16.50;92.30;;;17.18;55.85;98661.31;5086640;27;114644;-89
2023/05/20 06:55:47;;;;;;;;;;;16.50;92.20;;;17.27;55.45;98665.91;5079135;27;114064;-89
2023/05/20 06:58:16;;;;;;;;;;;16.60;92.10;;;17.30;55.53;98673.56;5073765;27;124308;-87
2023/05/20 07:00:46;;;;;;;;;;;16.60;92.00;;;17.38;55.57;98669.78;5054930;27;124123;-89
2023/05/20 07:03:12;;;;;;;;;;;16.70;92.10;;;17.46;55.48;98671.56;5058817;27;114590;-89
2023/05/20 07:05:38;;;;;;;;;;;16.80;92.00;;;17.47;55.17;98661.22;5088423;27;113456;-88
2023/05/20 07:08:04;;;;;;;;;;;16.80;91.90;;;17.49;55.36;98659.69;5062865;27;124201;-87
2023/05/20 07:10:33;;;;;;;;;;;18.30;92.40;;;17.60;54.87;98655.16;5053548;27;124112;-88
2023/05/20 07:12:59;;;;;;;;;;;17.00;91.80;;;17.77;54.56;98651.16;5064594;27;115235;-88
2023/05/20 07:15:26;;;;;;;;;;;17.10;91.70;;;17.93;54.23;98653.16;5066592;27;114657;-89
2023/05/20 07:17:52;;;;;;;;;;;17.20;91.60;;;18.01;53.49;98641.75;5075258;27;124571;-89
2023/05/20 07:20:20;;;;;;;;;;;17.30;91.20;;;18.06;53.11;98641.47;5081746;27;124551;-89
2023/05/20 07:22:49;;;;;;;;;;;17.30;91.10;;;18.14;53.06;98631.25;5065185;27;113971;-86
2023/05/20 07:25:23;;;;;;;;;;;17.40;91.00;;;18.23;52.54;98631.03;5079897;27;114115;-88
2023/05/20 07:27:49;;;;;;;;;;;17.50;90.90;;;18.32;52.44;98628.81;5064988;27;124245;-88
2023/05/20 07:30:15;;;;;;;;;;;17.50;90.60;;;18.42;52.04;98627.41;5082759;27;126331;-89
2023/05/20 07:32:49;;;;;;;;;;;17.70;90.50;;;18.50;51.97;98627.19;5084554;27;114249;-88
2023/05/20 07:35:16;;;;;;;;;;;17.80;90.50;;;18.59;51.71;98620.53;5062667;27;113845;-87
2023/05/20 07:37:45;;;;;;;;;;;17.90;90.30;;;18.66;51.57;98615.88;5069409;27;124649;-88
2023/05/20 07:40:11;;;;;;;;;;;17.90;90.20;;;18.72;51.57;98625.59;5082368;27;122589;-89
2023/05/20 07:42:40;;;;;;;;;;;18.10;90.20;;;18.79;51.10;98616.56;5074471;27;114225;-88
2023/05/20 07:45:12;;;;;;;;;;;18.10;90.00;;;18.87;51.03;98617.50;5082548;27;114291;-85
2023/05/20 07:47:38;;;;;;;;;;;18.20;89.70;;;18.91;50.93;98615.56;5076041;27;125693;-85
2023/05/20 07:50:14;;;;;;;;;;;18.20;89.60;;;18.94;50.63;98610.06;5060179;27;123844;-86
2023/05/20 07:52:40;;;;;;;;;;;18.30;89.30;;;18.97;51.04;98612.09;5076614;27;114178;-88
2023/05/20 07:55:08;;;;;;;;;;;18.30;89.60;;;19.00;50.94;98613.34;5075012;27;113919;-88
2023/05/20 07:57:35;;;;;;;;;;;18.40;89.70;;;19.05;50.67;98609.41;5060068;27;123224;-84
2023/05/20 08:00:05;;;;;;;;;;;18.40;89.30;;;19.06;50.62;98609.03;5059382;27;124092;-88
2023/05/20 08:02:32;;;;;;;;;;;18.50;89.80;;;19.06;50.45;98611.03;5089057;27;114992;-88
2023/05/20 08:04:58;;;;;;;;;;;18.50;88.70;;;19.11;50.64;98607.94;5060538;27;115029;-87
2023/05/20 08:07:27;;;;;;;;;;;18.60;88.80;;;19.18;50.31;98608.03;5088488;27;124128;-88
2023/05/20 08:09:56;;;;;;;;;;;18.60;88.50;;;19.13;50.05;98606.38;5075789;27;123563;-87
2023/05/20 08:12:22;;;;;;;;;;;18.60;88.40;;;19.10;50.21;98609.09;5062603;27;114813;-90
2023/05/20 08:14:49;;;;;;;;;;;18.50;88.40;;;19.11;50.50;98613.53;5058250;27;112756;-90
2023/05/20 08:17:15;;;;;;;;;;;18.50;88.40;;;19.12;50.43;98609.53;5085104;27;124239;-89
2023/05/20 08:19:47;;;;;;;;;;;18.50;88.40;;;19.14;50.37;98607.97;5049705;27;123032;-87
2023/05/20 08:22:14;;;;;;;;;;;18.60;88.50;;;19.14;50.30;98612.78;5080951;27;114558;-89
2023/05/20 08:24:50;;;;;;;;;;;18.60;88.40;;;19.14;50.33;98618.38;5080038;27;113747;-88
2023/05/20 08:27:23;;;;;;;;;;;18.60;88.20;;;19.14;50.48;98621.19;5087709;27;124255;-86
2023/05/20 08:29:52;;;;;;;;;;;18.60;88.20;;;19.15;50.16;98625.59;5072694;27;124147;-88
2023/05/20 08:32:21;;;;;;;;;;;18.70;88.10;;;19.14;50.21;98624.78;5092823;27;114437;-88
2023/05/20 08:34:48;;;;;;;;;;;18.60;87.90;;;19.12;50.25;98624.34;5083289;27;113930;-88
2023/05/20 08:37:24;;;;;;;;;;;18.60;87.90;;;19.19;50.25;98620.88;5088134;27;123436;-89
2023/05/20 08:39:59;;;;;;;;;;;18.70;88.20;;;19.26;50.16;98620.97;5060503;27;123442;-87
2023/05/20 08:42:25;;;;;;;;;;;18.80;88.20;;;19.38;50.00;98622.78;5088456;27;114356;-87
2023/05/20 08:44:53;;;;;;;;;;;18.80;88.10;;;19.49;49.98;98628.56;5056846;27;114582;-86
2023/05/20 08:47:22;;;;;;;;;;;18.90;88.00;;;19.56;49.75;98617.47;5066040;27;124793;-88
2023/05/20 08:49:48;;;;;;;;;;;19.00;87.70;;;19.61;49.05;98615.13;5078253;27;123746;-89
2023/05/20 08:52:25;;;;;;;;;;;19.10;87.50;;;19.65;48.98;98627.19;5059127;27;115370;-86
2023/05/20 08:54:52;;;;;;;;;;;19.10;87.10;;;19.65;49.08;98620.78;5059640;27;114769;-91
2023/05/20 08:57:25;;;;;;;;;;;19.10;86.80;;;19.68;48.67;98616.47;5057684;27;124322;-89
2023/05/20 08:59:51;;;;;;;;;;;19.10;86.80;;;19.74;48.95;98615.75;5086850;27;123550;-86
2023/05/20 09:02:21;;;;;;;;;;;19.20;86.80;;;19.78;48.71;98613.81;5057147;27;114057;-87
2023/05/20 09:04:47;;;;;;;;;;;19.30;86.80;;;19.82;49.01;98603.44;5049817;27;113148;-89
2023/05/20 09:07:13;;;;;;;;;;;19.30;86.80;;;19.93;48.95;98599.97;5061099;27;124175;-88
2023/05/20 09:09:40;;;;;;;;;;;19.40;86.80;;;20.03;48.62;98599.31;5080396;27;124001;-88
2023/05/20 09:12:10;;;;;;;;;;;19.50;86.40;;;20.05;48.37;98608.16;5080636;27;115670;-87
2023/05/20 09:14:36;;;;;;;;;;;19.50;86.30;;;20.02;48.43;98601.31;5081222;27;114114;-89
2023/05/20 09:17:12;;;;;;;;;;;19.50;86.10;;;20.00;48.61;98591.66;5083311;27;124129;-88
2023/05/20 09:19:47;;;;;;;;;;;19.60;86.10;;;20.00;48.79;98594.47;5084442;27;123886;-86
2023/05/20 09:22:22;;;;;;;;;;;19.60;86.00;;;19.99;48.91;98595.69;5084871;27;114271;-89
2023/05/20 09:24:59;;;;;;;;;;;19.60;85.80;;;20.00;48.49;98597.28;5083612;27;113904;-88
2023/05/20 09:27:25;;;;;;;;;;;19.60;85.80;;;20.06;48.41;98595.75;5061672;27;124081;-85
2023/05/20 09:29:56;;;;;;;;;;;19.70;85.90;;;20.13;48.41;98603.47;5077606;27;124033;-86
2023/05/20 09:32:25;;;;;;;;;;;19.70;85.70;;;20.19;48.37;98599.94;5051666;27;114419;-86
2023/05/20 09:34:51;;;;;;;;;;;19.80;85.60;;;20.26;47.94;98593.59;5087957;27;113724;-87
2023/05/20 09:37:25;;;;;;;;;;;19.80;85.30;;;20.33;48.06;98596.47;5053040;27;123110;-87
2023/05/20 09:40:08;;;;;;;;;;;19.90;85.40;;;20.36;47.94;98594.91;5057819;27;124148;-88
2023/05/20 09:42:47;;;;;;;;;;;19.90;85.20;;;20.37;47.55;98583.31;5064260;27;114662;-87
2023/05/20 09:45:13;;;;;;;;;;;20.00;85.00;;;20.38;47.13;98592.53;5060894;27;113679;-87
2023/05/20 09:47:49;;;;;;;;;;;20.00;84.30;;;20.37;47.23;98586.13;5055601;27;124903;-87
2023/05/20 09:50:22;;;;;;;;;;;20.00;84.50;;;20.43;47.20;98592.19;5072940;27;124421;-86
2023/05/20 09:52:52;;;;;;;;;;;20.00;84.50;;;20.47;47.26;98582.63;5072213;27;114614;-85
2023/05/20 09:55:23;;;;;;;;;;;20.10;84.60;;;20.57;47.24;98583.16;5063076;27;114349;-86
2023/05/20 09:57:50;;;;;;;;;;;20.10;84.40;;;20.65;46.94;98576.41;5054237;27;123507;-86
2023/05/20 10:00:16;;;;;;;;;;;20.10;84.20;;;20.69;46.89;98572.47;5050748;27;122941;-87
2023/05/20 10:02:47;;;;;;;;;;;20.20;84.30;;;20.74;46.76;98569.31;5073525;27;115070;-87
2023/05/20 10:05:23;;;;;;;;;;;20.20;84.10;;;20.82;47.24;98556.16;5060584;27;113590;-88
2023/05/20 10:08:23;;;;;;;;;;;20.30;84.40;;;20.92;47.04;98552.59;5048225;27;123333;-87
2023/05/20 10:11:01;;;;;;;;;;;20.40;84.60;;;21.02;46.30;98555.91;5059521;27;124016;-85
2023/05/20 10:14:14;;;;;;;;;;;20.50;84.00;;;21.03;46.15;98547.06;5086115;27;113733;-84
2023/05/20 10:16:58;;;;;;;;;;;20.50;83.40;;;21.05;46.12;98544.69;5009060;28;113466;-85
2023/05/20 10:19:32;;;;;;;;;;;20.50;83.20;;;21.07;46.15;98533.88;5008451;28;124051;-84
2023/05/20 10:22:10;;;;;;;;;;;20.50;83.40;;;21.13;46.03;98535.13;5004652;28;124389;-86
2023/05/20 10:24:48;;;;;;;;;;;20.60;83.20;;;21.18;45.80;98520.72;5002740;28;114513;-84
2023/05/20 10:27:16;;;;;;;;;;;20.70;83.00;;;21.24;46.07;98518.34;4988579;28;112731;-85
2023/05/20 10:29:48;;;;;;;;;;;20.70;83.10;;;21.33;45.74;98527.25;5006420;28;124469;-86
2023/05/20 10:32:23;;;;;;;;;;;20.80;83.00;;;21.41;45.59;98525.31;5007030;28;124261;-84
2023/05/20 10:34:51;;;;;;;;;;;20.90;82.40;;;21.44;45.04;98537.75;5003421;28;115769;-84
2023/05/20 10:37:46;;;;;;;;;;;20.90;82.00;;;21.46;45.01;98536.19;5000575;28;115294;-85
2023/05/20 10:40:15;;;;;;;;;;;20.90;82.00;;;21.51;45.18;98521.75;5005668;28;124005;-85
2023/05/20 10:42:47;;;;;;;;;;;21.00;81.90;;;21.57;44.95;98520.22;5011914;28;124681;-85
2023/05/20 10:45:27;;;;;;;;;;;21.10;81.80;;;21.67;44.42;98526.25;5010282;28;114796;-84
2023/05/20 10:47:59;;;;;;;;;;;21.10;81.10;;;21.73;44.39;98517.03;5009633;28;113968;-84
2023/05/20 10:50:32;;;;;;;;;;;21.20;81.20;;;21.84;44.32;98522.72;4987999;28;123305;-84
2023/05/20 10:53:08;;;;;;;;;;;21.30;80.90;;;21.90;43.54;98507.09;4999098;27;123305;-84
2023/05/20 10:55:37;;;;;;;;;;;21.30;80.00;;;21.99;43.52;98507.53;5073397;27;113904;-85
2023/05/20 10:58:11;;;;;;;;;;;21.40;79.90;;;22.09;43.86;98499.53;5086190;27;113709;-84
2023/05/20 11:00:37;;;;;;;;;;;21.50;80.30;;;22.20;43.40;98494.75;5062799;27;123764;-84
2023/05/20 11:03:13;;;;;;;;;;;21.60;79.80;;;22.27;43.15;98497.56;5066625;27;124468;-85
2023/05/20 11:05:39;;;;;;;;;;;21.70;79.40;;;22.32;42.83;98494.38;5061466;27;114598;-85
2023/05/20 11:08:08;;;;;;;;;;;21.70;78.40;;;22.35;42.34;98495.59;5052557;27;114071;-85
2023/05/20 11:10:38;;;;;;;;;;;21.80;78.60;;;22.37;42.63;98485.53;5059269;27;124443;-84
2023/05/20 11:13:11;;;;;;;;;;;21.90;78.70;;;22.48;42.63;98489.19;5087513;27;124109;-85
2023/05/20 11:15:43;;;;;;;;;;;22.00;78.70;;;22.60;42.54;98484.38;5068844;27;114560;-83
2023/05/20 11:18:11;;;;;;;;;;;22.10;78.50;;;22.62;42.03;98465.88;5079122;27;114340;-83
2023/05/20 11:20:37;;;;;;;;;;;22.10;77.30;;;22.64;41.73;98468.28;5078525;27;124178;-85
2023/05/20 11:23:11;;;;;;;;;;;22.20;77.10;;;22.66;41.83;98471.50;5084320;27;124432;-84
2023/05/20 11:25:37;;;;;;;;;;;22.20;76.90;;;22.67;41.48;98461.84;5045972;27;114223;-84
2023/05/20 11:28:14;;;;;;;;;;;22.20;76.40;;;22.70;41.28;98458.22;5046694;27;113722;-84
2023/05/20 11:30:49;;;;;;;;;;;22.30;76.30;;;22.74;41.09;98461.06;5081930;27;124415;-86
2023/05/20 11:33:22;;;;;;;;;;;22.30;75.80;;;22.77;41.46;98465.88;5073620;27;123559;-84
2023/05/20 11:35:50;;;;;;;;;;;22.40;76.00;;;22.84;41.38;98466.69;5072658;27;113670;-85
2023/05/20 11:38:20;;;;;;;;;;;22.40;76.00;;;22.92;40.85;98461.84;5056048;27;113457;-85
2023/05/20 11:40:51;;;;;;;;;;;22.50;75.50;;;22.99;40.97;98472.31;5060279;27;123346;-85
2023/05/20 11:43:21;;;;;;;;;;;22.50;75.70;;;23.03;40.82;98454.22;5069253;27;123709;-84
2023/05/20 11:46:00;;;;;;;;;;;22.50;75.30;;;23.04;40.74;98457.84;5052790;27;113864;-84
2023/05/20 11:48:29;;;;;;;;;;;22.60;75.00;;;23.08;40.50;98444.56;5053248;27;112747;-84
2023/05/20 11:50:58;;;;;;;;;;;22.60;74.80;;;23.10;40.29;98445.72;5081978;27;124064;-85
2023/05/20 11:53:25;;;;;;;;;;;22.60;74.70;;;23.08;40.46;98451.00;5050040;27;123795;-84
2023/05/20 11:56:01;;;;;;;;;;;22.60;74.30;;;23.08;40.23;98450.19;5073381;27;114808;-84
2023/05/20 11:58:30;;;;;;;;;;;22.60;74.30;;;23.08;40.41;98441.75;5058892;27;113458;-84
2023/05/20 12:01:00;;;;;;;;;;;22.60;74.30;;;23.07;40.25;98440.91;5041375;27;123889;-85
2023/05/20 12:03:32;;;;;;;;;;;22.70;74.00;;;23.10;40.47;98439.31;5071380;27;123937;-85
2023/05/20 12:06:00;;;;;;;;;;;22.70;74.20;;;23.16;40.26;98443.34;5077753;27;114817;-87